createdAt,value
2019-04-30T00:02:35.866Z,8.27
2019-04-30T00:04:58.897Z,8.27
2019-04-30T00:07:24.952Z,8.28
2019-04-30T00:10:10.761Z,8.17
2019-04-30T00:12:39.478Z,8.17
2019-04-30T00:15:06.207Z,8.28
2019-04-30T00:17:32.412Z,8.35
2019-04-30T00:20:00.036Z,8.27
2019-04-30T00:22:33.814Z,8.28
2019-04-30T00:24:55.604Z,8.37
2019-04-30T00:27:26.409Z,8.38
2019-04-30T00:30:09.837Z,8.51
2019-04-30T00:32:39.034Z,8.51
2019-04-30T00:35:25.329Z,8.52
2019-04-30T00:38:11.337Z,8.47
2019-04-30T00:40:37.320Z,8.47
2019-04-30T00:43:07.563Z,8.47
2019-04-30T00:45:51.007Z,8.35
2019-04-30T00:48:26.853Z,8.35
2019-04-30T00:50:45.756Z,8.39
2019-04-30T00:53:32.327Z,8.46
2019-04-30T00:56:11.804Z,8.43
2019-04-30T00:58:50.847Z,8.47
2019-04-30T01:04:10.223Z,8.51
2019-04-30T01:06:36.195Z,8.45
2019-04-30T01:11:49.814Z,8.56
2019-04-30T01:14:15.738Z,8.60
2019-04-30T01:16:41.674Z,8.56
2019-04-30T01:19:10.078Z,8.70
2019-04-30T01:21:55.374Z,8.81
2019-04-30T01:24:23.589Z,8.81
2019-04-30T01:27:30.731Z,8.87
2019-04-30T01:30:18.601Z,8.75
2019-04-30T01:32:44.489Z,8.75
2019-04-30T01:35:51.988Z,8.67
2019-04-30T01:38:18.924Z,8.49
2019-04-30T01:41:31.316Z,8.39
2019-04-30T01:43:55.144Z,8.33
2019-04-30T01:46:21.081Z,8.27
2019-04-30T01:48:50.599Z,8.15
2019-04-30T01:51:20.307Z,8.19
2019-04-30T01:53:43.610Z,8.13
2019-04-30T01:56:28.925Z,8.08
2019-04-30T02:04:09.989Z,8.16
2019-04-30T02:06:35.809Z,8.15
2019-04-30T02:09:01.644Z,8.13
2019-04-30T02:11:28.854Z,8.18
2019-04-30T02:13:55.427Z,8.09
2019-04-30T02:16:21.308Z,8.08
2019-04-30T02:18:49.025Z,8.09
2019-04-30T02:21:15.335Z,7.91
2019-04-30T02:24:01.158Z,7.83
2019-04-30T02:26:28.634Z,7.83
2019-04-30T02:29:14.812Z,7.83
2019-04-30T02:32:00.747Z,7.79
2019-04-30T02:39:34.402Z,7.59
2019-04-30T02:42:00.463Z,7.57
2019-04-30T02:45:10.303Z,7.48
2019-04-30T02:47:55.595Z,7.30
2019-04-30T02:50:22.580Z,7.30
2019-04-30T02:52:50.506Z,7.27
2019-04-30T02:55:59.555Z,7.20
2019-04-30T02:58:26.553Z,7.19
2019-04-30T03:00:52.611Z,7.17
2019-04-30T03:03:20.421Z,7.33
2019-04-30T03:05:46.309Z,7.13
2019-04-30T03:08:12.167Z,7.05
2019-04-30T03:10:40.163Z,6.99
2019-04-30T03:13:05.834Z,6.90
2019-04-30T03:15:31.768Z,6.87
2019-04-30T03:20:51.111Z,6.68
2019-04-30T03:23:19.554Z,6.76
2019-04-30T03:25:45.119Z,6.71
2019-04-30T03:28:10.965Z,6.65
2019-04-30T03:30:41.375Z,6.64
2019-04-30T03:33:04.647Z,6.49
2019-04-30T03:35:32.289Z,6.52
2019-04-30T03:37:59.228Z,6.31
2019-04-30T03:40:26.276Z,6.16
2019-04-30T03:42:52.120Z,6.13
2019-04-30T03:45:20.235Z,6.12
2019-04-30T03:48:05.577Z,6.27
2019-04-30T03:50:48.692Z,6.27
2019-04-30T03:53:00.475Z,6.34
2019-04-30T03:55:27.117Z,6.33
2019-04-30T03:58:12.971Z,6.27
2019-04-30T04:01:00.425Z,6.27
2019-04-30T04:03:26.542Z,6.20
2019-04-30T04:09:22.238Z,6.03
2019-04-30T04:12:30.032Z,5.81
2019-04-30T04:14:55.269Z,5.81
2019-04-30T04:21:00.128Z,5.74
2019-04-30T04:23:19.260Z,5.67
2019-04-30T04:25:46.079Z,5.52
2019-04-30T04:28:11.930Z,5.42
2019-04-30T04:30:39.743Z,5.53
2019-04-30T04:33:05.623Z,5.58
2019-04-30T04:35:31.467Z,5.74
2019-04-30T04:37:57.306Z,5.63
2019-04-30T04:40:23.134Z,5.81
2019-04-30T04:42:49.530Z,5.90
2019-04-30T04:45:19.594Z,5.74
2019-04-30T04:47:45.010Z,5.69
2019-04-30T04:50:52.467Z,5.71
2019-04-30T04:53:19.518Z,5.83
2019-04-30T04:55:46.379Z,5.87
2019-04-30T04:58:12.852Z,5.83
2019-04-30T05:00:40.430Z,5.68
2019-04-30T05:03:26.305Z,5.65
2019-04-30T05:05:52.235Z,5.65
2019-04-30T05:08:18.620Z,5.59
2019-04-30T05:10:46.043Z,5.68
2019-04-30T05:13:11.878Z,5.65
2019-04-30T05:15:39.008Z,5.52
2019-04-30T05:18:05.598Z,5.50
2019-04-30T05:20:31.519Z,5.53
2019-04-30T05:22:58.504Z,5.42
2019-04-30T05:25:25.187Z,5.39
2019-04-30T05:27:51.141Z,5.57
2019-04-30T05:30:17.168Z,5.75
2019-04-30T05:32:43.136Z,6.00
2019-04-30T05:35:09.631Z,5.88
2019-04-30T05:37:38.484Z,6.35
2019-04-30T05:40:24.744Z,6.09
2019-04-30T05:42:50.687Z,6.09
2019-04-30T05:45:16.753Z,6.23
2019-04-30T05:48:02.486Z,6.40
2019-04-30T05:50:29.580Z,6.40
2019-04-30T05:52:56.286Z,6.67
2019-04-30T05:55:22.232Z,6.68
2019-04-30T05:57:55.977Z,6.61
2019-04-30T06:00:16.117Z,6.72
2019-04-30T06:03:01.948Z,6.96
2019-04-30T06:05:49.272Z,6.99
2019-04-30T06:11:09.337Z,6.96
2019-04-30T06:13:55.210Z,7.18
2019-04-30T06:19:08.648Z,7.02
2019-04-30T06:21:34.577Z,7.19
2019-04-30T06:24:00.420Z,7.45
2019-04-30T06:26:26.261Z,7.71
2019-04-30T06:28:52.311Z,7.69
2019-04-30T06:31:22.286Z,8.13
2019-04-30T06:33:46.211Z,8.20
2019-04-30T06:36:12.153Z,8.05
2019-04-30T06:38:38.671Z,7.73
2019-04-30T06:41:26.016Z,8.13
2019-04-30T06:44:11.834Z,7.98
2019-04-30T06:46:38.701Z,7.98
2019-04-30T06:49:48.890Z,7.92
2019-04-30T06:52:20.686Z,7.98
2019-04-30T06:54:43.014Z,8.02
2019-04-30T06:57:09.717Z,7.50
2019-04-30T06:59:36.821Z,7.74
2019-04-30T07:02:02.984Z,8.13
2019-04-30T07:04:29.373Z,7.93
2019-04-30T07:06:58.883Z,7.90
2019-04-30T07:12:44.053Z,7.96
2019-04-30T07:15:29.888Z,8.88
2019-04-30T07:18:15.624Z,9.18
2019-04-30T07:20:41.567Z,9.18
2019-04-30T07:23:09.341Z,8.96
2019-04-30T07:25:55.194Z,8.78
2019-04-30T07:28:21.232Z,8.78
2019-04-30T07:30:49.344Z,9.25
2019-04-30T07:33:14.813Z,9.05
2019-04-30T07:38:35.770Z,9.37
2019-04-30T07:41:02.898Z,9.56
2019-04-30T07:43:29.006Z,9.13
2019-04-30T07:45:54.806Z,9.13
2019-04-30T07:48:25.949Z,9.22
2019-04-30T07:51:10.310Z,9.73
2019-04-30T07:53:36.504Z,9.50
2019-04-30T07:56:02.420Z,9.50
2019-04-30T07:58:29.853Z,9.80
2019-04-30T08:00:56.458Z,9.46
2019-04-30T08:04:03.814Z,9.60
2019-04-30T08:09:41.905Z,9.90
2019-04-30T08:12:31.089Z,9.89
2019-04-30T08:14:52.811Z,9.64
2019-04-30T08:17:18.952Z,9.64
2019-04-30T08:20:08.587Z,9.85
2019-04-30T08:22:54.325Z,10.14
2019-04-30T08:25:22.004Z,10.14
2019-04-30T08:27:49.305Z,10.04
2019-04-30T08:30:35.942Z,10.48
2019-04-30T08:33:21.666Z,10.27
2019-04-30T08:35:49.730Z,10.27
2019-04-30T08:38:15.549Z,11.08
2019-04-30T08:41:01.383Z,11.39
2019-04-30T08:43:29.198Z,11.71
2019-04-30T08:46:15.177Z,11.05
2019-04-30T08:48:50.291Z,11.05
2019-04-30T08:51:10.689Z,11.13
2019-04-30T08:53:38.627Z,10.83
2019-04-30T08:56:21.642Z,11.69
2019-04-30T08:58:46.449Z,11.69
2019-04-30T09:01:12.432Z,11.78
2019-04-30T09:03:39.307Z,11.44
2019-04-30T09:11:51.625Z,12.59
2019-04-30T09:14:06.317Z,12.09
2019-04-30T09:16:32.316Z,11.91
2019-04-30T09:18:59.528Z,12.26
2019-04-30T09:21:46.047Z,12.03
2019-04-30T09:24:12.120Z,12.03
2019-04-30T09:26:39.182Z,12.40
2019-04-30T09:29:06.013Z,12.89
2019-04-30T09:31:32.063Z,12.38
2019-04-30T09:34:00.646Z,12.57
2019-04-30T09:36:25.773Z,12.71
2019-04-30T09:38:51.614Z,12.70
2019-04-30T09:41:19.193Z,12.84
2019-04-30T09:43:45.412Z,12.76
2019-04-30T09:46:19.203Z,12.76
2019-04-30T09:48:39.190Z,12.35
2019-04-30T09:51:05.647Z,12.66
2019-04-30T09:53:58.625Z,12.59
2019-04-30T09:56:33.644Z,13.17
2019-04-30T09:58:59.603Z,13.17
2019-04-30T10:01:25.447Z,12.95
2019-04-30T10:03:51.689Z,12.48
2019-04-30T10:06:19.244Z,13.13
2019-04-30T10:08:48.500Z,13.65
2019-04-30T10:11:32.827Z,13.97
2019-04-30T10:13:58.977Z,13.72
2019-04-30T10:19:14.899Z,13.33
2019-04-30T10:21:40.275Z,13.17
2019-04-30T10:24:14.833Z,13.42
2019-04-30T10:26:34.438Z,13.41
2019-04-30T10:29:41.942Z,13.95
2019-04-30T10:32:50.063Z,14.04
2019-04-30T10:35:16.089Z,14.53
2019-04-30T10:37:42.014Z,14.25
2019-04-30T10:40:10.212Z,14.86
2019-04-30T10:42:36.102Z,14.56
2019-04-30T10:45:43.609Z,14.63
2019-04-30T10:48:09.559Z,14.71
2019-04-30T10:50:35.624Z,14.63
2019-04-30T10:53:01.471Z,15.04
2019-04-30T10:55:28.702Z,14.99
2019-04-30T10:57:55.248Z,14.51
2019-04-30T11:01:02.779Z,14.93
2019-04-30T11:03:29.136Z,14.70
2019-04-30T11:05:56.464Z,14.94
2019-04-30T11:08:22.391Z,14.84
2019-04-30T11:10:48.439Z,14.81
2019-04-30T11:13:14.385Z,14.67
2019-04-30T11:15:40.315Z,14.98
2019-04-30T11:18:06.615Z,15.16
2019-04-30T11:20:34.328Z,15.02
2019-04-30T11:23:13.859Z,15.61
2019-04-30T11:25:31.260Z,15.83
2019-04-30T11:27:58.356Z,15.68
2019-04-30T11:30:25.885Z,16.02
2019-04-30T11:32:53.814Z,15.85
2019-04-30T11:35:21.509Z,15.78
2019-04-30T11:37:47.561Z,15.80
2019-04-30T11:40:55.030Z,15.42
2019-04-30T11:43:20.964Z,15.71
2019-04-30T11:46:28.536Z,15.98
2019-04-30T11:48:54.382Z,15.78
2019-04-30T11:51:20.321Z,16.41
2019-04-30T11:53:46.390Z,15.96
2019-04-30T11:56:12.438Z,16.30
2019-04-30T11:58:38.943Z,16.02
2019-04-30T12:01:47.719Z,16.16
2019-04-30T12:04:13.587Z,16.03
2019-04-30T12:06:39.548Z,16.02
2019-04-30T12:09:48.478Z,16.29
2019-04-30T12:12:14.838Z,16.24
2019-04-30T12:14:40.810Z,16.39
2019-04-30T12:17:06.741Z,16.45
2019-04-30T12:19:32.668Z,16.90
2019-04-30T12:21:58.630Z,16.90
2019-04-30T12:24:24.593Z,17.59
2019-04-30T12:26:50.535Z,17.07
2019-04-30T12:29:16.457Z,17.18
2019-04-30T12:31:42.328Z,17.38
2019-04-30T12:34:08.183Z,17.15
2019-04-30T12:36:34.263Z,16.80
2019-04-30T12:39:00.116Z,17.10
2019-04-30T12:41:25.958Z,16.69
2019-04-30T12:43:51.823Z,16.80
2019-04-30T12:46:18.991Z,16.85
2019-04-30T12:49:05.487Z,17.62
2019-04-30T12:51:51.209Z,17.10
2019-04-30T12:54:37.061Z,17.55
2019-04-30T12:59:50.598Z,17.95
2019-04-30T13:02:16.521Z,17.53
2019-04-30T13:04:42.460Z,17.27
2019-04-30T13:07:10.399Z,17.43
2019-04-30T13:09:36.651Z,18.06
2019-04-30T13:12:04.551Z,17.18
2019-04-30T13:14:32.473Z,17.50
2019-04-30T13:16:59.734Z,16.99
2019-04-30T13:19:25.659Z,17.34
2019-04-30T13:21:51.574Z,17.95
2019-04-30T13:24:17.748Z,17.94
2019-04-30T13:26:43.678Z,17.66
2019-04-30T13:31:43.215Z,17.28
2019-04-30T13:36:43.211Z,16.74
2019-04-30T13:39:29.329Z,17.60
2019-04-30T13:42:18.110Z,17.54
2019-04-30T13:44:43.450Z,17.43
2019-04-30T13:47:29.399Z,16.42
2019-04-30T13:49:55.213Z,16.72
2019-04-30T13:52:21.246Z,18.03
2019-04-30T13:54:47.191Z,18.56
2019-04-30T13:57:13.030Z,18.46
2019-04-30T13:59:39.026Z,17.51
2019-04-30T14:02:05.056Z,17.95
2019-04-30T14:04:50.906Z,17.79
2019-04-30T14:07:39.956Z,18.10
2019-04-30T14:10:46.048Z,18.22
2019-04-30T14:13:11.970Z,18.51
2019-04-30T14:15:57.791Z,18.12
2019-04-30T14:18:30.857Z,18.09
2019-04-30T14:20:51.708Z,16.98
2019-04-30T14:26:24.775Z,18.05
2019-04-30T14:28:50.706Z,17.88
2019-04-30T14:31:16.656Z,17.98
2019-04-30T14:33:42.604Z,17.96
2019-04-30T14:36:08.897Z,18.52
2019-04-30T14:38:36.482Z,18.38
2019-04-30T14:41:03.366Z,18.52
2019-04-30T14:43:51.105Z,17.82
2019-04-30T14:46:39.216Z,18.32
2019-04-30T14:49:25.730Z,17.69
2019-04-30T14:51:52.729Z,17.45
2019-04-30T14:54:38.544Z,17.95
2019-04-30T15:00:12.008Z,17.28
2019-04-30T15:05:25.703Z,18.24
2019-04-30T15:07:51.824Z,18.14
2019-04-30T15:10:17.787Z,17.50
2019-04-30T15:12:43.618Z,17.35
2019-04-30T15:15:51.108Z,17.54
2019-04-30T15:18:58.562Z,17.75
2019-04-30T15:22:06.046Z,17.54
2019-04-30T15:25:13.542Z,16.83
2019-04-30T15:27:59.479Z,17.20
2019-04-30T15:30:25.299Z,17.67
2019-04-30T15:35:24.996Z,17.29
2019-04-30T15:38:10.829Z,17.68
2019-04-30T15:40:38.680Z,17.17
2019-04-30T15:45:52.273Z,16.76
2019-04-30T15:48:38.081Z,16.99
2019-04-30T15:51:03.977Z,17.25
2019-04-30T15:53:29.815Z,17.45
2019-04-30T15:55:55.772Z,17.53
2019-04-30T16:03:47.062Z,17.35
2019-04-30T16:06:12.915Z,16.51
2019-04-30T16:09:20.272Z,16.80
2019-04-30T16:12:05.966Z,17.23
2019-04-30T16:14:51.693Z,16.53
2019-04-30T16:17:20.648Z,16.24
2019-04-30T16:19:46.826Z,16.30
2019-04-30T16:22:12.739Z,16.35
2019-04-30T16:24:38.783Z,16.25
2019-04-30T16:27:04.871Z,15.95
2019-04-30T16:29:30.932Z,15.34
2019-04-30T16:31:59.034Z,15.18
2019-04-30T16:34:24.650Z,15.05
2019-04-30T16:36:50.604Z,15.00
2019-04-30T16:39:18.579Z,14.84
2019-04-30T16:41:44.532Z,14.82
2019-04-30T16:44:10.813Z,14.73
2019-04-30T16:46:36.763Z,14.43
2019-04-30T16:49:02.913Z,14.56
2019-04-30T16:51:28.999Z,14.44
2019-04-30T16:53:54.992Z,14.32
2019-04-30T16:56:21.076Z,14.28
2019-04-30T16:58:57.660Z,14.35
2019-04-30T17:01:23.795Z,14.27
2019-04-30T17:03:51.835Z,14.24
2019-04-30T17:06:25.337Z,13.98
2019-04-30T17:08:53.225Z,13.96
2019-04-30T17:11:28.290Z,13.98
2019-04-30T17:13:56.430Z,13.96
2019-04-30T17:16:23.354Z,13.87
2019-04-30T17:18:50.101Z,13.94
2019-04-30T17:21:16.054Z,13.78
2019-04-30T17:23:42.218Z,13.66
2019-04-30T17:26:08.182Z,13.67
2019-04-30T17:28:34.324Z,13.62
2019-04-30T17:31:00.277Z,13.64
2019-04-30T17:33:26.317Z,13.58
2019-04-30T17:35:52.279Z,13.52
2019-04-30T17:38:18.317Z,13.57
2019-04-30T17:40:44.343Z,13.33
2019-04-30T17:43:10.397Z,13.28
2019-04-30T17:45:36.351Z,13.39
2019-04-30T17:48:02.223Z,13.35
2019-04-30T17:50:29.559Z,13.25
2019-04-30T17:52:55.524Z,13.13
2019-04-30T17:55:21.478Z,13.15
2019-04-30T17:57:48.679Z,12.80
2019-04-30T18:00:19.354Z,12.79
2019-04-30T18:02:43.589Z,12.76
2019-04-30T18:05:11.444Z,12.87
2019-04-30T18:07:39.401Z,12.81
2019-04-30T18:10:08.732Z,12.72
2019-04-30T18:12:34.690Z,12.67
2019-04-30T18:15:00.567Z,12.64
2019-04-30T18:17:26.526Z,12.54
2019-04-30T18:20:03.146Z,12.40
2019-04-30T18:22:30.890Z,12.41
2019-04-30T18:25:01.395Z,12.47
2019-04-30T18:27:29.491Z,12.36
2019-04-30T18:29:55.409Z,12.27
2019-04-30T18:32:23.267Z,12.24
2019-04-30T18:34:49.345Z,12.13
2019-04-30T18:37:15.331Z,12.15
2019-04-30T18:39:41.270Z,12.01
2019-04-30T18:42:10.776Z,11.99
2019-04-30T18:44:35.001Z,11.98
2019-04-30T18:47:00.844Z,11.95
2019-04-30T18:49:28.611Z,11.85
2019-04-30T18:51:54.603Z,11.74
2019-04-30T18:54:20.955Z,11.67
2019-04-30T18:56:48.833Z,11.61
2019-04-30T18:59:14.801Z,11.50
2019-04-30T19:01:40.766Z,11.17
2019-04-30T19:04:08.853Z,11.09
2019-04-30T19:06:34.512Z,11.10
2019-04-30T19:09:09.615Z,11.21
2019-04-30T19:11:39.393Z,10.74
2019-04-30T19:14:25.024Z,10.82
2019-04-30T19:17:09.603Z,10.85
2019-04-30T19:19:37.470Z,10.79
2019-04-30T19:22:03.537Z,10.68
2019-04-30T19:24:29.397Z,10.53
2019-04-30T19:26:55.261Z,10.49
2019-04-30T19:29:21.119Z,9.93
2019-04-30T19:31:47.091Z,9.60
2019-04-30T19:34:13.036Z,9.61
2019-04-30T19:36:40.700Z,9.96
2019-04-30T19:39:08.750Z,9.74
2019-04-30T19:41:34.673Z,9.63
2019-04-30T19:44:00.559Z,9.50
2019-04-30T19:46:26.421Z,8.94
2019-04-30T19:48:52.263Z,9.30
2019-04-30T19:51:19.808Z,9.25
2019-04-30T19:53:45.816Z,9.61
2019-04-30T19:56:11.668Z,9.70
2019-04-30T19:58:48.715Z,9.71
2019-04-30T20:01:05.394Z,9.60
2019-04-30T20:03:31.362Z,9.16
2019-04-30T20:05:58.614Z,9.13
2019-04-30T20:08:24.548Z,9.06
2019-04-30T20:10:50.408Z,9.06
2019-04-30T20:13:30.878Z,8.79
2019-04-30T20:15:44.057Z,8.97
2019-04-30T20:18:10.053Z,8.97
2019-04-30T20:20:39.727Z,9.05
2019-04-30T20:23:05.614Z,8.88
2019-04-30T20:25:31.501Z,8.61
2019-04-30T20:27:57.394Z,8.61
2019-04-30T20:30:23.234Z,8.67
2019-04-30T20:32:51.312Z,8.65
2019-04-30T20:35:17.241Z,8.50
2019-04-30T20:38:01.482Z,8.37
2019-04-30T20:40:37.318Z,8.28
2019-04-30T20:45:40.804Z,8.26
2019-04-30T20:48:08.771Z,8.03
2019-04-30T20:50:34.511Z,8.00
2019-04-30T20:53:00.372Z,8.01
2019-04-30T20:55:26.339Z,7.48
2019-04-30T20:57:52.220Z,7.63
2019-04-30T21:00:18.289Z,7.46
2019-04-30T21:02:44.263Z,7.06
2019-04-30T21:05:10.137Z,7.06
2019-04-30T21:07:36.111Z,7.34
2019-04-30T21:10:03.573Z,7.53
2019-04-30T21:12:29.447Z,7.43
2019-04-30T21:14:55.394Z,7.43
2019-04-30T21:17:21.372Z,7.28
2019-04-30T21:19:47.301Z,6.98
2019-04-30T21:22:13.272Z,7.51
2019-04-30T21:24:39.129Z,7.51
2019-04-30T21:27:04.961Z,7.15
2019-04-30T21:29:30.920Z,7.06
2019-04-30T21:32:19.042Z,7.06
2019-04-30T21:34:52.635Z,6.93
2019-04-30T21:37:18.480Z,7.05
2019-04-30T21:39:44.436Z,7.05
2019-04-30T21:42:10.392Z,6.95
2019-04-30T21:44:36.355Z,6.88
2019-04-30T21:47:02.413Z,6.78
2019-04-30T21:49:28.394Z,6.57
2019-04-30T21:51:54.334Z,6.57
2019-04-30T21:54:20.172Z,6.59
2019-04-30T21:56:46.137Z,6.50
2019-04-30T21:59:23.780Z,6.46
2019-04-30T22:01:41.031Z,6.34
2019-04-30T22:04:07.081Z,6.40
2019-04-30T22:06:32.939Z,6.28
2019-04-30T22:08:58.899Z,6.28
2019-04-30T22:11:24.918Z,6.12
2019-04-30T22:13:50.768Z,6.21
2019-04-30T22:16:20.056Z,6.21
2019-04-30T22:18:44.666Z,5.97
2019-04-30T22:21:10.623Z,6.03
2019-04-30T22:23:36.490Z,6.00
2019-04-30T22:26:02.535Z,5.99
2019-04-30T22:28:28.403Z,5.95
2019-04-30T22:30:54.269Z,5.93
2019-04-30T22:33:20.230Z,5.61
2019-04-30T22:35:53.946Z,5.42
2019-04-30T22:38:21.838Z,5.41
2019-04-30T22:40:48.828Z,4.68
2019-04-30T22:43:14.835Z,4.68
2019-04-30T22:45:49.876Z,4.63
2019-04-30T22:48:15.805Z,4.42
2019-04-30T22:50:41.734Z,4.60
2019-04-30T22:53:07.661Z,4.98
2019-04-30T22:55:33.529Z,5.20
2019-04-30T22:57:59.355Z,5.36
2019-04-30T23:00:27.226Z,5.04
2019-04-30T23:02:57.674Z,5.39
2019-04-30T23:05:23.870Z,4.58
2019-04-30T23:07:49.803Z,4.58
2019-04-30T23:10:15.755Z,4.74
2019-04-30T23:12:41.801Z,4.81
2019-04-30T23:15:08.058Z,4.90
2019-04-30T23:17:33.906Z,4.90
2019-04-30T23:19:59.771Z,4.67
2019-04-30T23:22:25.592Z,4.32
2019-04-30T23:24:51.443Z,4.12
2019-04-30T23:27:17.379Z,3.84
2019-04-30T23:29:43.412Z,3.90
2019-04-30T23:32:09.357Z,4.17
2019-04-30T23:34:35.428Z,4.54
2019-04-30T23:37:01.385Z,4.76
2019-04-30T23:39:27.321Z,4.76
2019-04-30T23:41:53.180Z,4.98
2019-04-30T23:44:19.013Z,4.93
2019-04-30T23:46:45.081Z,4.71
2019-04-30T23:49:10.928Z,4.64
2019-04-30T23:51:36.870Z,4.74
2019-04-30T23:54:02.806Z,4.34
2019-04-30T23:56:28.748Z,4.42
2019-04-30T23:58:54.689Z,4.61
